Time;durP1;ratioP1;P1;durP2;ratioP2;P2;SDS_P1;SDS_P2;PMS_P1;PMS_P2;Temp;Humidity;BMP_temperature;BMP_pressure;BME280_temperature;BME280_humidity;BME280_pressure;Samples;Min_cycle;Max_cycle;Signal;HPM_P1;HPM_P2
2021/11/24 00:01:10;;;;;;;12.57;9.63;;;7.20;99.90;;;;;;5114730;28;20032;-70
2021/11/24 00:03:36;;;;;;;11.45;9.93;;;7.20;99.90;;;;;;5117050;28;20388;-70
2021/11/24 00:06:01;;;;;;;13.25;9.95;;;7.20;99.90;;;;;;5116688;28;20067;-70
2021/11/24 00:08:27;;;;;;;14.73;10.88;;;7.20;99.90;;;;;;5115851;28;20036;-70
2021/11/24 00:10:53;;;;;;;13.30;9.38;;;7.20;99.90;;;;;;5115764;28;20480;-70
2021/11/24 00:13:18;;;;;;;12.70;8.48;;;7.20;99.90;;;;;;5117031;28;20092;-70
2021/11/24 00:15:44;;;;;;;18.77;9.63;;;7.20;99.90;;;;;;5115112;28;20042;-70
2021/11/24 00:18:10;;;;;;;12.65;9.32;;;7.20;99.90;;;;;;5117003;28;20038;-70
2021/11/24 00:20:35;;;;;;;14.75;10.07;;;7.20;99.90;;;;;;5115297;28;20047;-70
2021/11/24 00:23:01;;;;;;;11.52;8.10;;;7.20;99.90;;;;;;5115545;28;20039;-70
2021/11/24 00:25:27;;;;;;;11.30;8.55;;;7.20;99.90;;;;;;5115562;28;20543;-70
2021/11/24 00:27:53;;;;;;;9.30;7.15;;;7.20;99.90;;;;;;5116136;28;20484;-70
2021/11/24 00:30:20;;;;;;;8.52;6.82;;;7.30;99.90;;;;;;5116858;28;20036;-70
2021/11/24 00:32:45;;;;;;;11.57;7.07;;;7.30;99.90;;;;;;5116468;28;20096;-70
2021/11/24 00:35:11;;;;;;;10.57;6.60;;;7.30;99.90;;;;;;5116707;28;20435;-70
2021/11/24 00:37:37;;;;;;;8.00;6.30;;;7.30;99.90;;;;;;5116078;28;20075;-70
2021/11/24 00:40:06;;;;;;;7.95;7.03;;;7.30;99.90;;;;;;5115290;28;20096;-70
2021/11/24 00:42:33;;;;;;;9.65;6.70;;;7.40;99.90;;;;;;5116220;28;20082;-70
2021/11/24 00:44:58;;;;;;;11.68;6.53;;;7.40;99.90;;;;;;5116491;28;20028;-70
2021/11/24 00:47:24;;;;;;;11.25;7.30;;;7.40;99.90;;;;;;5115759;28;20504;-70
2021/11/24 00:49:50;;;;;;;7.45;6.22;;;7.40;99.90;;;;;;5116013;28;20040;-70
2021/11/24 00:52:15;;;;;;;8.25;5.75;;;7.50;99.90;;;;;;5116023;28;20039;-70
2021/11/24 00:54:41;;;;;;;8.02;6.55;;;7.50;99.90;;;;;;5115838;28;20035;-70
2021/11/24 00:57:07;;;;;;;7.05;6.35;;;7.50;99.90;;;;;;5114189;28;20485;-70
2021/11/24 00:59:33;;;;;;;8.10;6.53;;;7.50;99.90;;;;;;5114782;28;20105;-70
2021/11/24 01:01:58;;;;;;;8.50;6.60;;;7.50;99.90;;;;;;5114874;28;20412;-70
2021/11/24 01:04:24;;;;;;;7.25;6.13;;;7.50;99.90;;;;;;5115052;28;20043;-70
2021/11/24 01:06:49;;;;;;;7.10;6.20;;;7.60;99.90;;;;;;5115495;28;20031;-71
2021/11/24 01:09:15;;;;;;;10.20;5.82;;;7.50;99.90;;;;;;5115643;28;20088;-70
2021/11/24 01:11:41;;;;;;;9.15;5.88;;;7.50;99.90;;;;;;5115496;28;20040;-70
2021/11/24 01:14:07;;;;;;;9.13;5.45;;;7.50;99.90;;;;;;5115018;28;20040;-70
2021/11/24 01:16:33;;;;;;;7.72;5.78;;;7.60;99.90;;;;;;5115288;28;20530;-70
2021/11/24 01:18:58;;;;;;;7.10;5.70;;;7.50;99.90;;;;;;5115813;28;20507;-70
2021/11/24 01:21:24;;;;;;;8.57;6.45;;;7.50;99.90;;;;;;5115486;28;20047;-70
2021/11/24 01:23:51;;;;;;;9.82;6.57;;;7.50;99.90;;;;;;5115447;28;20028;-70
2021/11/24 01:26:17;;;;;;;8.55;6.63;;;7.50;99.90;;;;;;5114956;28;20047;-70
2021/11/24 01:28:43;;;;;;;8.95;7.05;;;7.50;99.90;;;;;;5115495;28;20049;-70
2021/11/24 01:31:09;;;;;;;9.15;6.00;;;7.50;99.90;;;;;;5115431;28;20050;-70
2021/11/24 01:33:34;;;;;;;8.30;6.63;;;7.50;99.90;;;;;;5115369;28;20035;-70
2021/11/24 01:36:01;;;;;;;8.93;6.25;;;7.40;99.90;;;;;;5114963;28;20467;-70
2021/11/24 01:38:26;;;;;;;8.40;6.20;;;7.40;99.90;;;;;;5115043;28;20039;-70
2021/11/24 01:40:53;;;;;;;8.63;6.10;;;7.40;99.90;;;;;;5115137;28;20503;-70
2021/11/24 01:43:19;;;;;;;9.55;6.45;;;7.40;99.90;;;;;;5115129;28;20535;-70
2021/11/24 01:45:44;;;;;;;7.40;5.82;;;7.40;99.90;;;;;;5114867;28;20036;-70
2021/11/24 01:48:10;;;;;;;6.18;5.22;;;7.50;99.90;;;;;;5114808;28;20042;-70
2021/11/24 01:50:36;;;;;;;7.53;5.25;;;7.50;99.90;;;;;;5115161;28;20082;-70
2021/11/24 01:53:02;;;;;;;13.13;5.85;;;7.50;99.90;;;;;;5113803;28;20380;-70
2021/11/24 01:55:28;;;;;;;9.55;6.90;;;7.50;99.90;;;;;;5114824;28;20525;-70
2021/11/24 01:57:54;;;;;;;8.80;5.85;;;7.50;99.90;;;;;;5114584;28;20122;-70
2021/11/24 02:00:24;;;;;;;7.72;5.53;;;7.50;99.90;;;;;;5115000;28;20047;-70
2021/11/24 02:02:50;;;;;;;8.82;6.00;;;7.50;99.90;;;;;;5114739;28;20127;-70
2021/11/24 02:05:16;;;;;;;7.53;6.50;;;7.50;99.90;;;;;;5114611;28;20032;-70
2021/11/24 02:07:42;;;;;;;9.38;6.40;;;7.50;99.90;;;;;;5113095;28;20541;-70
2021/11/24 02:10:08;;;;;;;9.75;6.20;;;7.40;99.90;;;;;;5114603;28;20031;-70
2021/11/24 02:12:33;;;;;;;9.48;6.60;;;7.40;99.90;;;;;;5113859;28;20054;-70
2021/11/24 02:14:59;;;;;;;9.93;6.38;;;7.40;99.90;;;;;;5096543;28;20046;-70
2021/11/24 02:17:25;;;;;;;8.57;5.22;;;7.40;99.90;;;;;;5112982;28;20047;-70
2021/11/24 02:19:50;;;;;;;7.40;5.75;;;7.40;99.90;;;;;;5114438;28;20044;-70
2021/11/24 02:22:16;;;;;;;9.50;5.20;;;7.40;99.90;;;;;;5114468;28;20063;-70
2021/11/24 02:24:44;;;;;;;13.23;5.72;;;7.40;99.90;;;;;;5114109;28;20090;-70
2021/11/24 02:27:11;;;;;;;6.57;5.13;;;7.40;99.90;;;;;;5113909;28;20122;-70
2021/11/24 02:29:38;;;;;;;7.65;5.57;;;7.40;99.90;;;;;;5114370;28;20453;-70
2021/11/24 02:32:05;;;;;;;7.95;5.80;;;7.40;99.90;;;;;;5112764;28;20116;-70
2021/11/24 02:34:32;;;;;;;6.20;4.72;;;7.40;99.90;;;;;;5113968;28;20488;-70
2021/11/24 02:36:58;;;;;;;7.68;4.90;;;7.40;99.90;;;;;;5113644;28;20043;-70
2021/11/24 02:39:24;;;;;;;9.07;5.30;;;7.40;99.90;;;;;;5114294;28;20031;-70
2021/11/24 02:41:50;;;;;;;7.95;4.90;;;7.50;99.90;;;;;;5114339;28;20031;-70
2021/11/24 02:44:23;;;;;;;6.00;3.97;;;7.40;99.90;;;;;;5114361;28;20347;-70
2021/11/24 02:46:49;;;;;;;7.90;4.72;;;7.50;99.90;;;;;;5113754;28;20036;-70
2021/11/24 02:49:15;;;;;;;5.45;4.32;;;7.50;99.90;;;;;;5114170;28;20035;-70
2021/11/24 02:51:42;;;;;;;3.97;3.53;;;7.50;99.90;;;;;;5112702;28;20515;-70
2021/11/24 02:54:08;;;;;;;8.55;4.13;;;7.50;99.90;;;;;;5114235;28;20047;-70
2021/11/24 02:56:34;;;;;;;4.93;3.60;;;7.50;99.90;;;;;;5112025;28;20039;-70
2021/11/24 02:59:00;;;;;;;8.38;3.92;;;7.50;99.90;;;;;;5114122;28;20039;-70
2021/11/24 03:01:25;;;;;;;5.72;3.58;;;7.50;99.90;;;;;;5113636;28;20428;-70
2021/11/24 03:03:51;;;;;;;7.88;4.45;;;7.50;99.90;;;;;;5113870;28;20032;-71
2021/11/24 03:06:17;;;;;;;4.75;4.22;;;7.60;99.90;;;;;;5113575;28;20075;-70
2021/11/24 03:08:43;;;;;;;5.65;4.10;;;7.60;99.90;;;;;;5113563;28;20043;-70
2021/11/24 03:11:09;;;;;;;6.43;3.35;;;7.50;99.90;;;;;;5114058;28;20035;-70
2021/11/24 03:13:34;;;;;;;7.82;3.70;;;7.50;99.90;;;;;;5113834;28;20401;-70
2021/11/24 03:16:00;;;;;;;7.05;3.80;;;7.50;99.90;;;;;;5113186;28;20396;-70
2021/11/24 03:18:25;;;;;;;6.88;4.65;;;7.60;99.90;;;;;;5113500;28;20110;-70
2021/11/24 03:20:51;;;;;;;4.82;3.67;;;7.50;99.90;;;;;;5112115;28;20078;-70
2021/11/24 03:23:17;;;;;;;5.18;3.70;;;7.60;99.90;;;;;;5113921;28;20136;-70
2021/11/24 03:25:42;;;;;;;4.93;4.00;;;7.50;99.90;;;;;;5113143;28;20039;-71
2021/11/24 03:28:09;;;;;;;6.53;3.83;;;7.50;99.90;;;;;;5113666;28;20118;-70
2021/11/24 03:30:35;;;;;;;5.82;4.00;;;7.50;99.90;;;;;;5113700;28;20088;-70
2021/11/24 03:33:02;;;;;;;5.18;3.85;;;7.50;99.90;;;;;;5113892;28;20444;-70
2021/11/24 03:35:29;;;;;;;7.15;3.90;;;7.60;99.90;;;;;;5114096;28;20113;-70
2021/11/24 03:37:56;;;;;;;5.35;3.55;;;7.50;99.90;;;;;;5115864;28;20047;-70
2021/11/24 03:40:26;;;;;;;4.47;3.20;;;7.50;99.90;;;;;;5117750;28;20039;-70
2021/11/24 03:42:52;;;;;;;3.90;3.55;;;7.50;99.90;;;;;;5117446;28;20035;-70
2021/11/24 03:45:21;;;;;;;6.28;3.38;;;7.60;99.90;;;;;;5117224;28;20039;-70
2021/11/24 03:47:47;;;;;;;6.25;3.08;;;7.60;99.90;;;;;;5116845;28;20408;-70
2021/11/24 03:50:13;;;;;;;4.20;3.80;;;7.60;99.90;;;;;;5117319;28;20086;-70
2021/11/24 03:52:39;;;;;;;7.50;3.75;;;7.60;99.90;;;;;;5116403;28;20035;-70
2021/11/24 03:55:06;;;;;;;4.80;3.10;;;7.60;99.90;;;;;;5117191;28;20043;-70
2021/11/24 03:57:32;;;;;;;4.68;3.20;;;7.60;99.90;;;;;;5115902;28;20057;-70
2021/11/24 03:59:58;;;;;;;5.20;3.55;;;7.60;99.90;;;;;;5117043;28;20487;-70
2021/11/24 04:02:24;;;;;;;6.20;3.30;;;7.60;99.90;;;;;;5117122;28;20488;-70
2021/11/24 04:04:49;;;;;;;5.75;2.92;;;7.60;99.90;;;;;;5117357;28;20031;-70
2021/11/24 04:07:15;;;;;;;4.30;3.05;;;7.60;99.90;;;;;;5116771;28;20083;-70
2021/11/24 04:09:41;;;;;;;3.67;2.75;;;7.60;99.90;;;;;;5116936;28;20476;-70
2021/11/24 04:12:07;;;;;;;5.05;2.70;;;7.60;99.90;;;;;;5117043;28;20040;-70
2021/11/24 04:14:32;;;;;;;6.03;2.88;;;7.60;99.90;;;;;;5098933;28;20039;-70
2021/11/24 04:16:58;;;;;;;4.75;2.70;;;7.60;99.90;;;;;;5115196;28;20039;-70
2021/11/24 04:19:24;;;;;;;4.05;2.60;;;7.60;99.90;;;;;;5116535;28;20056;-70
2021/11/24 04:21:49;;;;;;;5.38;3.20;;;7.60;99.90;;;;;;5116479;28;20064;-70
2021/11/24 04:24:15;;;;;;;4.80;3.05;;;7.60;99.90;;;;;;5116851;28;20043;-70
2021/11/24 04:26:41;;;;;;;5.15;3.35;;;7.50;99.90;;;;;;5114942;28;20404;-70
2021/11/24 04:29:06;;;;;;;4.75;3.05;;;7.50;99.90;;;;;;5116737;28;20100;-70
2021/11/24 04:31:32;;;;;;;3.95;3.10;;;7.50;99.90;;;;;;5115138;28;20438;-70
2021/11/24 04:33:57;;;;;;;4.40;3.00;;;7.50;99.90;;;;;;5116288;28;20070;-70
2021/11/24 04:36:23;;;;;;;4.53;3.72;;;7.50;99.90;;;;;;5114727;28;20039;-70
2021/11/24 04:38:48;;;;;;;6.68;4.00;;;7.50;99.90;;;;;;5116251;28;20051;-70
2021/11/24 04:41:14;;;;;;;5.00;3.53;;;7.50;99.90;;;;;;5116151;28;20485;-70
2021/11/24 04:43:44;;;;;;;7.00;3.50;;;7.50;99.90;;;;;;5116041;28;20043;-70
2021/11/24 04:46:12;;;;;;;7.00;4.38;;;7.50;99.90;;;;;;5116016;28;20039;-70
2021/11/24 04:48:38;;;;;;;5.07;3.15;;;7.50;99.90;;;;;;5116123;28;20075;-70
2021/11/24 04:51:04;;;;;;;6.50;3.90;;;7.50;99.90;;;;;;5122493;27;20046;-70
2021/11/24 04:53:30;;;;;;;4.22;3.80;;;7.50;99.90;;;;;;5136685;27;20035;-70
2021/11/24 04:55:55;;;;;;;4.93;3.30;;;7.50;99.90;;;;;;5136598;27;20500;-70
2021/11/24 04:58:21;;;;;;;5.25;3.60;;;7.50;99.90;;;;;;5136377;27;20035;-70
2021/11/24 05:00:47;;;;;;;7.80;4.00;;;7.50;99.90;;;;;;5135057;27;20066;-70
2021/11/24 05:03:12;;;;;;;7.10;4.25;;;7.50;99.90;;;;;;5136543;27;20507;-70
2021/11/24 05:05:38;;;;;;;6.38;3.78;;;7.50;99.90;;;;;;5136079;27;20448;-70
2021/11/24 05:08:04;;;;;;;7.63;3.80;;;7.40;99.90;;;;;;5136412;27;20039;-70
2021/11/24 05:10:29;;;;;;;4.30;3.22;;;7.40;99.90;;;;;;5135672;27;20380;-70
2021/11/24 05:12:55;;;;;;;4.68;3.45;;;7.40;99.90;;;;;;5136313;27;20031;-70
2021/11/24 05:15:25;;;;;;;8.48;3.67;;;7.40;99.90;;;;;;5136290;27;20063;-70
2021/11/24 05:17:58;;;;;;;5.68;3.22;;;7.40;99.90;;;;;;5134667;27;20043;-70
2021/11/24 05:20:26;;;;;;;6.97;3.38;;;7.40;99.90;;;;;;5136025;27;20039;-70
2021/11/24 05:22:53;;;;;;;6.40;2.92;;;7.40;99.90;;;;;;5136418;27;20035;-70
2021/11/24 05:25:19;;;;;;;5.40;4.05;;;7.40;99.90;;;;;;5136455;27;20039;-70
2021/11/24 05:27:45;;;;;;;7.38;3.45;;;7.40;99.90;;;;;;5135530;27;20031;-70
2021/11/24 05:30:12;;;;;;;5.10;3.58;;;7.40;99.90;;;;;;5135966;27;20054;-70
2021/11/24 05:32:38;;;;;;;4.57;3.13;;;7.40;99.90;;;;;;5136041;27;20043;-70
2021/11/24 05:35:05;;;;;;;13.20;5.15;;;7.40;99.90;;;;;;5136215;27;20051;-70
2021/11/24 05:37:31;;;;;;;4.53;2.63;;;7.40;99.90;;;;;;5135369;27;20035;-70
2021/11/24 05:39:56;;;;;;;6.63;3.45;;;7.40;99.90;;;;;;5135828;27;20043;-70
2021/11/24 05:42:24;;;;;;;5.10;3.00;;;7.50;99.90;;;;;;5135876;27;20042;-70
2021/11/24 05:44:51;;;;;;;3.65;2.88;;;7.40;99.90;;;;;;5135878;27;20036;-70
2021/11/24 05:48:03;;;;;;;5.57;3.10;;;7.40;99.90;;;;;;5116837;27;20065;-69
2021/11/24 05:50:07;;;;;;;4.47;2.95;;;7.40;99.90;;;;;;5124284;27;20458;-69
2021/11/24 05:52:33;;;;;;;7.93;3.45;;;7.50;99.90;;;;;;5134061;27;20095;-69
2021/11/24 05:54:58;;;;;;;6.15;3.80;;;7.40;99.90;;;;;;5134171;27;20515;-71
2021/11/24 05:57:24;;;;;;;5.15;2.78;;;7.40;99.90;;;;;;5135068;27;20035;-69
2021/11/24 05:59:49;;;;;;;4.15;2.75;;;7.40;99.90;;;;;;5135095;27;20089;-69
2021/11/24 06:02:15;;;;;;;3.63;2.70;;;7.50;99.90;;;;;;5135831;27;20027;-69
2021/11/24 06:04:41;;;;;;;3.80;2.60;;;7.40;99.90;;;;;;5135106;27;20487;-69
2021/11/24 06:07:06;;;;;;;4.18;2.17;;;7.40;99.90;;;;;;5116906;27;20046;-69
2021/11/24 06:09:32;;;;;;;5.70;2.70;;;7.40;99.90;;;;;;5133985;27;20047;-69
2021/11/24 06:11:57;;;;;;;3.38;1.85;;;7.40;99.90;;;;;;5135140;27;20045;-69
2021/11/24 06:14:23;;;;;;;4.45;2.17;;;7.40;99.90;;;;;;5133806;27;20039;-69
2021/11/24 06:16:49;;;;;;;3.67;2.00;;;7.40;99.90;;;;;;5134492;27;20434;-69
2021/11/24 06:19:14;;;;;;;4.20;2.25;;;7.40;99.90;;;;;;5134805;27;20400;-69
2021/11/24 06:21:40;;;;;;;4.47;1.92;;;7.40;99.90;;;;;;5134666;27;20035;-69
2021/11/24 06:24:05;;;;;;;4.72;2.20;;;7.40;99.90;;;;;;5135059;27;20035;-69
2021/11/24 06:26:31;;;;;;;7.63;2.95;;;7.40;99.90;;;;;;5133405;27;20114;-69
2021/11/24 06:28:57;;;;;;;4.80;1.92;;;7.40;99.90;;;;;;5134996;27;20513;-69
2021/11/24 06:31:25;;;;;;;5.28;2.05;;;7.40;99.90;;;;;;5135154;27;20095;-69
2021/11/24 06:33:52;;;;;;;3.10;1.80;;;7.40;99.90;;;;;;5134593;27;20039;-69
2021/11/24 06:36:19;;;;;;;4.10;2.30;;;7.40;99.90;;;;;;5133374;27;20047;-69
2021/11/24 06:38:44;;;;;;;6.68;2.90;;;7.40;99.90;;;;;;5134754;27;20046;-69
2021/11/24 06:41:10;;;;;;;5.97;2.78;;;7.40;99.90;;;;;;5134470;27;20035;-69
2021/11/24 06:43:35;;;;;;;5.20;2.78;;;7.30;99.90;;;;;;5133465;27;20039;-69
2021/11/24 06:46:01;;;;;;;4.25;2.50;;;7.30;99.90;;;;;;5133118;27;20038;-69
2021/11/24 06:48:27;;;;;;;6.20;2.03;;;7.30;99.90;;;;;;5134331;27;20087;-69
2021/11/24 06:50:53;;;;;;;5.63;2.30;;;7.40;99.90;;;;;;5134501;27;20047;-69
2021/11/24 06:53:18;;;;;;;3.50;2.10;;;7.40;99.90;;;;;;5134645;27;20114;-69
2021/11/24 06:55:44;;;;;;;4.15;2.20;;;7.40;99.90;;;;;;5133994;27;20438;-69
2021/11/24 06:58:11;;;;;;;4.68;1.85;;;7.30;99.90;;;;;;5133185;27;20483;-69
2021/11/24 07:00:37;;;;;;;5.22;2.20;;;7.40;99.90;;;;;;5134501;27;20121;-69
2021/11/24 07:03:02;;;;;;;3.30;2.83;;;7.40;99.90;;;;;;5134536;27;20063;-70
2021/11/24 07:05:28;;;;;;;3.63;2.58;;;7.40;99.90;;;;;;5134229;27;20031;-69
2021/11/24 07:07:53;;;;;;;9.73;2.13;;;7.40;99.90;;;;;;5133817;28;20035;-69
2021/11/24 07:10:19;;;;;;;4.20;2.03;;;7.40;99.90;;;;;;5134527;27;20035;-69
2021/11/24 07:12:45;;;;;;;5.53;2.30;;;7.40;99.90;;;;;;5137302;27;20035;-69
2021/11/24 07:15:10;;;;;;;3.35;2.25;;;7.40;99.90;;;;;;5137058;27;20048;-69
2021/11/24 07:17:36;;;;;;;3.92;2.00;;;7.40;99.90;;;;;;5138075;27;20031;-69
2021/11/24 07:20:04;;;;;;;2.75;2.03;;;7.40;99.90;;;;;;5138161;27;20039;-70
2021/11/24 07:22:30;;;;;;;9.57;2.42;;;7.40;99.90;;;;;;5138256;27;20035;-70
2021/11/24 07:24:55;;;;;;;3.83;2.50;;;7.40;99.90;;;;;;5138139;27;20484;-71
2021/11/24 07:27:21;;;;;;;3.65;2.17;;;7.40;99.90;;;;;;5136535;27;20050;-70
2021/11/24 07:29:47;;;;;;;6.10;2.30;;;7.40;99.90;;;;;;5138331;27;20041;-70
2021/11/24 07:32:13;;;;;;;3.75;2.30;;;7.40;99.90;;;;;;5138208;27;20047;-70
2021/11/24 07:34:39;;;;;;;3.67;2.30;;;7.40;99.90;;;;;;5138066;27;20480;-70
2021/11/24 07:37:04;;;;;;;2.95;2.42;;;7.40;99.90;;;;;;5138133;27;20083;-71
2021/11/24 07:39:31;;;;;;;4.10;2.80;;;7.50;99.90;;;;;;5138381;27;20464;-71
2021/11/24 07:41:58;;;;;;;3.83;2.42;;;7.50;99.90;;;;;;5138243;27;20050;-69
2021/11/24 07:44:24;;;;;;;5.65;2.45;;;7.50;99.90;;;;;;5138326;27;20043;-69
2021/11/24 07:46:49;;;;;;;3.90;2.72;;;7.50;99.90;;;;;;5136565;27;20080;-70
2021/11/24 07:49:15;;;;;;;6.03;2.63;;;7.50;99.90;;;;;;5137888;27;20050;-69
2021/11/24 07:51:40;;;;;;;3.95;2.72;;;7.50;99.90;;;;;;5137777;27;20400;-70
2021/11/24 07:54:06;;;;;;;5.38;2.67;;;7.50;99.90;;;;;;5136778;27;20096;-70
2021/11/24 07:56:32;;;;;;;4.63;2.47;;;7.60;99.90;;;;;;5137488;27;20035;-69
2021/11/24 07:58:57;;;;;;;4.03;2.92;;;7.60;99.90;;;;;;5137952;27;20042;-70
2021/11/24 08:01:23;;;;;;;5.15;3.03;;;7.50;99.90;;;;;;5139441;27;20388;-71
2021/11/24 08:03:48;;;;;;;3.40;2.80;;;7.50;99.90;;;;;;5138291;27;20380;-71
2021/11/24 08:06:14;;;;;;;3.95;2.40;;;7.50;99.90;;;;;;5139211;27;20084;-69
2021/11/24 08:08:40;;;;;;;4.15;2.95;;;7.50;99.90;;;;;;5137600;27;20126;-69
2021/11/24 08:11:05;;;;;;;4.90;3.58;;;7.50;99.90;;;;;;5137711;27;20074;-69
2021/11/24 08:13:31;;;;;;;3.30;3.00;;;7.50;99.90;;;;;;5137599;27;20073;-69
2021/11/24 08:15:57;;;;;;;3.67;2.60;;;7.50;99.90;;;;;;5137012;27;20508;-69
2021/11/24 08:18:22;;;;;;;3.60;2.58;;;7.50;99.90;;;;;;5137151;27;20063;-70
2021/11/24 08:20:48;;;;;;;5.68;2.95;;;7.50;99.90;;;;;;5118819;27;20544;-70
2021/11/24 08:23:14;;;;;;;4.72;2.53;;;7.50;99.90;;;;;;5136679;27;20043;-69
2021/11/24 08:25:39;;;;;;;5.03;2.53;;;7.50;99.90;;;;;;5136646;27;20035;-69
2021/11/24 08:28:05;;;;;;;5.13;2.72;;;7.50;99.90;;;;;;5137811;27;20063;-69
2021/11/24 08:30:31;;;;;;;5.07;2.75;;;7.50;99.90;;;;;;5137029;27;20122;-69
2021/11/24 08:32:57;;;;;;;4.75;2.55;;;7.60;99.90;;;;;;5137309;27;20050;-69
2021/11/24 08:35:23;;;;;;;2.80;2.25;;;7.50;99.90;;;;;;5137053;27;20049;-69
2021/11/24 08:37:50;;;;;;;6.20;3.17;;;7.60;99.90;;;;;;5136709;27;20074;-69
2021/11/24 08:40:16;;;;;;;6.28;3.00;;;7.50;99.90;;;;;;5135813;27;20054;-69
2021/11/24 08:42:42;;;;;;;7.07;2.65;;;7.60;99.90;;;;;;5135965;27;20477;-69
2021/11/24 08:45:09;;;;;;;5.25;3.20;;;7.60;99.90;;;;;;5135675;27;20039;-69
2021/11/24 08:47:36;;;;;;;5.28;2.80;;;7.60;99.90;;;;;;5136327;27;20121;-70
2021/11/24 08:50:03;;;;;;;3.28;2.22;;;7.60;99.90;;;;;;5135372;27;20046;-69
2021/11/24 08:52:29;;;;;;;4.57;2.70;;;7.60;99.90;;;;;;5135392;27;20042;-69
2021/11/24 08:54:55;;;;;;;3.05;2.05;;;7.60;99.90;;;;;;5136505;27;20039;-69
2021/11/24 08:57:22;;;;;;;2.78;2.20;;;7.60;99.90;;;;;;5136260;27;20422;-69
2021/11/24 08:59:48;;;;;;;4.90;2.28;;;7.60;99.90;;;;;;5136508;27;20039;-69
2021/11/24 09:02:14;;;;;;;3.33;2.17;;;7.60;99.90;;;;;;5136291;27;20472;-69
2021/11/24 09:04:39;;;;;;;3.90;2.22;;;7.60;99.90;;;;;;5136641;27;20073;-69
2021/11/24 09:07:05;;;;;;;5.80;1.95;;;7.70;99.90;;;;;;5136076;27;20034;-70
2021/11/24 09:09:31;;;;;;;5.30;2.55;;;7.70;99.90;;;;;;5136444;27;20536;-69
2021/11/24 09:11:57;;;;;;;4.55;2.95;;;7.70;99.90;;;;;;5135066;27;20038;-69
2021/11/24 09:14:24;;;;;;;5.55;2.30;;;7.70;99.90;;;;;;5136404;27;20123;-69
2021/11/24 09:16:49;;;;;;;4.13;2.40;;;7.80;99.90;;;;;;5135817;27;20049;-69
2021/11/24 09:19:15;;;;;;;6.43;2.63;;;7.80;99.90;;;;;;5136104;27;20043;-69
2021/11/24 09:21:40;;;;;;;2.42;2.05;;;7.80;99.90;;;;;;5136052;27;20035;-69
2021/11/24 09:24:12;;;;;;;5.72;2.53;;;7.80;99.90;;;;;;5134620;27;20043;-69
2021/11/24 09:26:42;;;;;;;4.53;2.35;;;7.80;99.90;;;;;;5134601;27;20122;-69
2021/11/24 09:29:08;;;;;;;5.50;2.47;;;7.80;99.90;;;;;;5135969;27;20089;-69
2021/11/24 09:31:35;;;;;;;4.18;2.10;;;7.80;99.90;;;;;;5136118;27;20118;-69
2021/11/24 09:34:01;;;;;;;4.30;1.80;;;7.80;99.90;;;;;;5135091;27;20039;-69
2021/11/24 09:36:27;;;;;;;3.25;2.15;;;7.80;99.90;;;;;;5135256;27;20038;-69
2021/11/24 09:38:53;;;;;;;5.38;2.38;;;7.80;99.90;;;;;;5135635;27;20484;-69
2021/11/24 09:41:22;;;;;;;3.55;1.80;;;7.80;99.90;;;;;;5135419;27;20039;-69
2021/11/24 09:43:51;;;;;;;3.85;2.47;;;7.80;99.90;;;;;;5135488;27;20448;-69
2021/11/24 09:46:18;;;;;;;5.43;2.33;;;7.80;99.90;;;;;;5135431;27;20080;-70
2021/11/24 09:48:45;;;;;;;3.05;1.98;;;7.80;99.90;;;;;;5134448;27;20039;-69
2021/11/24 09:51:12;;;;;;;4.15;2.55;;;7.90;99.90;;;;;;5135835;27;20031;-69
2021/11/24 09:53:40;;;;;;;2.85;1.90;;;7.90;99.90;;;;;;5135593;27;20043;-69
2021/11/24 09:56:05;;;;;;;3.38;2.33;;;7.90;99.90;;;;;;5135001;27;20559;-69
2021/11/24 09:58:32;;;;;;;7.32;2.72;;;7.90;99.90;;;;;;5134112;27;20122;-69
2021/11/24 10:00:59;;;;;;;5.97;2.55;;;7.90;99.90;;;;;;5135334;27;20082;-69
2021/11/24 10:03:26;;;;;;;3.17;2.58;;;7.90;99.90;;;;;;5134428;27;20054;-69
2021/11/24 10:05:52;;;;;;;3.65;2.50;;;7.90;99.90;;;;;;5135134;27;20122;-69
2021/11/24 10:08:19;;;;;;;4.03;2.55;;;7.90;99.90;;;;;;5135259;27;20039;-69
2021/11/24 10:10:45;;;;;;;12.13;2.78;;;7.90;99.90;;;;;;5135043;27;20035;-69
2021/11/24 10:13:11;;;;;;;4.00;2.60;;;8.00;99.90;;;;;;5135069;27;20160;-69
2021/11/24 10:15:38;;;;;;;4.15;2.13;;;8.00;99.90;;;;;;5134742;27;20038;-69
2021/11/24 10:18:11;;;;;;;5.57;2.55;;;8.00;99.90;;;;;;5135144;27;20194;-69
2021/11/24 10:21:09;;;;;;;3.47;1.90;;;8.00;99.90;;;;;;5134918;27;20050;-70
2021/11/24 10:23:37;;;;;;;4.85;2.28;;;8.00;99.90;;;;;;5135035;27;20035;-69
2021/11/24 10:26:20;;;;;;;3.25;2.30;;;8.00;99.90;;;;;;5134362;27;20122;-70
2021/11/24 10:29:10;;;;;;;4.72;2.67;;;8.00;99.90;;;;;;5133298;27;20042;-69
2021/11/24 10:31:39;;;;;;;5.63;2.40;;;8.00;99.90;;;;;;5134521;27;20049;-69
2021/11/24 10:34:26;;;;;;;4.10;1.85;;;8.00;99.90;;;;;;5134382;27;20047;-69
2021/11/24 10:37:07;;;;;;;5.55;2.00;;;8.10;99.90;;;;;;5134352;27;20031;-69
2021/11/24 10:39:36;;;;;;;6.13;2.60;;;8.00;99.90;;;;;;5134553;27;20047;-69
2021/11/24 10:42:04;;;;;;;4.97;2.55;;;8.10;99.90;;;;;;5133142;27;20049;-69
2021/11/24 10:44:32;;;;;;;5.72;2.20;;;8.10;99.90;;;;;;5134574;27;20077;-69
2021/11/24 10:46:59;;;;;;;5.50;2.85;;;8.10;99.90;;;;;;5134183;27;20046;-69
2021/11/24 10:49:43;;;;;;;5.13;2.28;;;8.20;99.90;;;;;;5133279;27;20042;-69
2021/11/24 10:52:15;;;;;;;3.10;1.80;;;8.10;99.90;;;;;;5134349;27;20050;-69
2021/11/24 10:54:42;;;;;;;3.45;2.17;;;8.20;99.90;;;;;;5134658;27;20484;-70
2021/11/24 10:57:12;;;;;;;3.80;2.20;;;8.20;99.90;;;;;;5134087;27;20047;-69
2021/11/24 10:59:41;;;;;;;7.03;3.20;;;8.20;99.90;;;;;;5134415;27;20039;-69
2021/11/24 11:02:23;;;;;;;4.18;2.25;;;8.20;99.90;;;;;;5134230;27;20039;-69
2021/11/24 11:05:07;;;;;;;3.25;2.65;;;8.30;99.90;;;;;;5134377;27;20027;-69
2021/11/24 11:07:37;;;;;;;3.50;2.47;;;8.30;99.90;;;;;;5134182;27;20053;-69
2021/11/24 11:10:07;;;;;;;4.47;2.72;;;8.30;99.90;;;;;;5135272;27;20491;-69
2021/11/24 11:12:34;;;;;;;6.20;2.83;;;8.30;99.90;;;;;;5134889;27;20098;-70
2021/11/24 11:15:12;;;;;;;3.40;2.92;;;8.30;99.90;;;;;;5134155;27;20049;-69
2021/11/24 11:17:54;;;;;;;6.90;3.15;;;8.40;99.90;;;;;;5132798;27;20446;-69
2021/11/24 11:20:21;;;;;;;5.30;3.22;;;8.40;99.90;;;;;;5134396;27;20062;-69
2021/11/24 11:23:08;;;;;;;6.88;3.08;;;8.30;99.90;;;;;;5134180;27;20035;-69
2021/11/24 11:25:35;;;;;;;5.15;3.13;;;8.40;99.90;;;;;;5134371;27;20043;-70
2021/11/24 11:28:01;;;;;;;4.90;3.10;;;8.40;99.90;;;;;;5134621;27;20043;-69
2021/11/24 11:30:31;;;;;;;3.90;3.28;;;8.40;99.90;;;;;;5134571;27;20050;-69
2021/11/24 11:32:57;;;;;;;4.20;3.13;;;8.40;99.90;;;;;;5134559;27;20099;-69
2021/11/24 11:35:23;;;;;;;9.25;3.63;;;8.40;99.90;;;;;;5133159;28;20046;-70
2021/11/24 11:37:50;;;;;;;5.18;3.25;;;8.40;99.90;;;;;;5132567;27;20035;-69
2021/11/24 11:40:16;;;;;;;5.68;3.58;;;8.40;99.90;;;;;;5132842;28;20039;-69
2021/11/24 11:42:44;;;;;;;3.75;3.35;;;8.40;99.90;;;;;;5134324;27;20061;-70
2021/11/24 11:45:13;;;;;;;5.95;4.13;;;8.40;99.90;;;;;;5133002;27;20039;-69
2021/11/24 11:47:53;;;;;;;4.95;3.50;;;8.40;99.90;;;;;;5134086;27;20042;-69
2021/11/24 11:50:47;;;;;;;6.97;4.00;;;8.40;99.90;;;;;;5134345;27;20027;-70
2021/11/24 11:53:33;;;;;;;7.32;3.90;;;8.40;99.90;;;;;;5133794;27;20480;-68
2021/11/24 11:56:14;;;;;;;5.93;3.13;;;8.40;99.90;;;;;;5132845;27;20039;-70
2021/11/24 11:59:02;;;;;;;4.78;3.33;;;8.40;99.90;;;;;;5137484;27;20044;-70
2021/11/24 12:01:41;;;;;;;6.10;3.28;;;8.40;99.90;;;;;;5138339;27;20035;-68
2021/11/24 12:04:08;;;;;;;5.25;3.38;;;8.40;99.90;;;;;;5137995;27;20484;-70
2021/11/24 12:06:42;;;;;;;5.88;3.33;;;8.40;99.90;;;;;;5137856;27;20035;-69
2021/11/24 12:09:15;;;;;;;6.22;3.50;;;8.40;99.90;;;;;;5138556;27;20035;-70
2021/11/24 12:12:06;;;;;;;9.63;3.35;;;8.50;99.90;;;;;;5137974;27;20043;-69
2021/11/24 12:14:53;;;;;;;5.70;3.33;;;8.50;99.90;;;;;;5136151;27;20054;-69
2021/11/24 12:17:34;;;;;;;4.47;3.17;;;8.50;99.90;;;;;;5136062;27;20085;-69
2021/11/24 12:20:15;;;;;;;3.70;2.97;;;8.40;99.90;;;;;;5136487;27;20054;-69
2021/11/24 12:22:50;;;;;;;6.35;3.13;;;8.40;99.90;;;;;;5136029;27;20051;-70
2021/11/24 12:27:53;;;;;;;6.45;3.20;;;8.50;99.90;;;;;;5135993;27;20039;-70
2021/11/24 12:33:17;;;;;;;4.13;3.10;;;8.50;99.90;;;;;;5137617;27;20077;-68
2021/11/24 12:36:15;;;;;;;7.60;3.65;;;8.40;99.90;;;;;;5118254;27;20039;-69
2021/11/24 12:38:45;;;;;;;5.00;3.30;;;8.40;99.90;;;;;;5136153;27;20069;-69
2021/11/24 12:41:15;;;;;;;5.82;3.50;;;8.40;99.90;;;;;;5137121;27;20380;-69
2021/11/24 12:43:47;;;;;;;4.45;3.17;;;8.40;99.90;;;;;;5137130;27;20069;-69
2021/11/24 12:46:27;;;;;;;5.78;2.97;;;8.40;99.90;;;;;;5136677;27;20042;-69
2021/11/24 12:49:01;;;;;;;5.15;3.00;;;8.50;99.90;;;;;;5136886;27;20031;-69
2021/11/24 12:51:31;;;;;;;7.03;3.70;;;8.40;99.90;;;;;;5118163;27;20405;-69
2021/11/24 12:53:57;;;;;;;6.00;3.53;;;8.40;99.90;;;;;;5136610;27;20035;-69
2021/11/24 12:56:50;;;;;;;5.72;3.28;;;8.40;99.90;;;;;;5134872;27;20061;-70
2021/11/24 12:59:42;;;;;;;6.38;3.40;;;8.40;99.90;;;;;;5136546;27;20031;-69
2021/11/24 13:02:10;;;;;;;7.25;3.55;;;8.40;99.90;;;;;;5127226;27;20055;-69
2021/11/24 13:04:46;;;;;;;3.95;3.15;;;8.50;99.90;;;;;;5136772;27;20035;-69